Flight Track Log - Related Links

Times and Time Zones

All times are in EDT time to prevent confusion due to time zone crossing. See the UAL4457 flight status page for this flight to view local times or setup timezone preferences in your user account.


Time Position Orientation Groundspeed Altitude Reporting Facility
EDT Latitude Longitude Course Direction KTS MPH feet Rate Location/Type
Fri 03:27:42 PM 29.9769 -95.3031 41° Northeast 169 194 600  Level Houston Center
Fri 03:28:07 PM 29.9853 -95.2803 67° East 198 228 1,600 2,415 Climbing Houston Center
Fri 03:29:04 PM 30.0461 -95.2567 19° North 263 303 3,900 1,815 Climbing Houston Center
Fri 03:30:06 PM 30.1181 -95.2275 19° North 269 310 5,200 1,984 Climbing Houston Center
Fri 03:31:08 PM 30.2008 -95.2175 North 291 335 8,000 2,565 Climbing Houston Center
Fri 03:32:00 PM 30.4657 -94.9500 North  Level FlightAware Approximate
Fri 03:32:10 PM 30.2747 -95.1669 31° Northeast 315 362 10,500  Level Houston Center
Fri 03:33:00 PM 30.5601 -94.8732 41° Northeast  Level FlightAware Approximate
Fri 03:33:12 PM 30.3464 -95.0969 40° Northeast 331 381 11,700  Level Houston Center
Fri 03:34:14 PM 30.4375 -95.0044 41° Northeast 359 413 13,900 1,872 Climbing Houston Center
Fri 03:35:17 PM 30.5128 -94.9286 41° Northeast 356 410 15,600 1,584 Climbing Houston Center
Fri 03:36:19 PM 30.5989 -94.8539 37° Northeast 371 427 17,200 1,403 Climbing Houston Center
Fri 03:37:21 PM 30.6903 -94.7847 33° Northeast 380 437 18,500 1,355 Climbing Houston Center
Fri 03:38:23 PM 30.7803 -94.7142 34° Northeast 386 444 20,000 1,839 Climbing Houston Center
Fri 03:39:25 PM 30.8900 -94.6294 34° Northeast 392 451 22,300 1,984 Climbing Houston Center
Fri 03:40:27 PM 30.9811 -94.5594 33° Northeast 396 456 24,100 1,421 Climbing Houston Center
Fri 03:41:19 PM 31.0503 -94.5039 35° Northeast 391 450 25,000 482 Climbing Fort Worth Center
Fri 03:42:19 PM 31.1511 -94.4350 30° Northeast 401 461 25,000 650 Level Fort Worth Center
Fri 03:43:19 PM 31.2533 -94.3467 36° Northeast 429 494 26,300 1,750 Climbing Fort Worth Center
Fri 03:44:19 PM 31.3517 -94.2706 33° Northeast 436 502 28,500 1,750 Climbing Fort Worth Center
Fri 03:45:19 PM 31.4481 -94.1967 33° Northeast 426 490 29,800 1,500 Climbing Fort Worth Center
Fri 03:46:19 PM 31.5400 -94.1253 33° Northeast 409 471 31,500 1,700 Climbing Fort Worth Center
Fri 03:47:19 PM 31.6342 -94.0511 34° Northeast 403 464 33,200 1,500 Climbing Fort Worth Center
Fri 03:48:19 PM 31.7200 -93.9894 31° Northeast 385 443 34,500 900 Climbing Fort Worth Center
Fri 03:49:19 PM 31.8100 -93.9175 34° Northeast 380 437 35,000 250 Climbing Fort Worth Center
Fri 03:50:19 PM 31.9100 -93.8403 33° Northeast 397 457 35,000  Level Fort Worth Center
Fri 03:51:19 PM 32.0119 -93.7531 36° Northeast 427 491 35,000  Level Fort Worth Center
Fri 03:52:19 PM 32.1222 -93.6703 32° Northeast 445 512 35,000  Level Fort Worth Center
Fri 03:53:19 PM 32.2258 -93.5728 39° Northeast 469 540 35,000  Level Fort Worth Center
Fri 03:54:19 PM 32.3358 -93.4894 33° Northeast 469 540 35,000  Level Fort Worth Center
Fri 03:55:19 PM 32.4436 -93.3986 35° Northeast 469 540 35,000  Level Fort Worth Center
Fri 03:56:19 PM 32.5536 -93.3122 33° Northeast 469 540 35,000  Level Fort Worth Center
Fri 03:57:19 PM 32.6614 -93.2258 34° Northeast 469 540 35,000  Level Fort Worth Center
Fri 03:58:19 PM 32.7692 -93.1369 35° Northeast 469 540 35,000  Level Fort Worth Center
Fri 03:59:19 PM 32.8767 -93.0503 34° Northeast 469 540 35,000  Level Fort Worth Center
Fri 04:00:19 PM 32.9864 -92.9631 34° Northeast 474 545 35,000  Level Fort Worth Center
Fri 04:01:19 PM 33.0939 -92.8761 34° Northeast 474 545 35,000  Level Fort Worth Center
Fri 04:02:57 PM 33.2781 -92.7128 37° Northeast 468 539 35,000  Level Memphis Center
Fri 04:03:57 PM 33.3619 -92.5858 52° Northeast 468 539 35,000  Level Memphis Center
Fri 04:04:57 PM 33.4475 -92.4561 52° Northeast 481 554 35,000  Level Memphis Center
Fri 04:05:57 PM 33.5311 -92.3283 52° Northeast 481 554 35,000  Level Memphis Center
Fri 04:06:57 PM 33.6122 -92.2031 52° Northeast 481 554 35,000 150 Level Memphis Center
Fri 04:07:57 PM 33.6978 -92.0750 51° Northeast 481 554 35,300 600 Climbing Memphis Center
Fri 04:08:57 PM 33.7764 -91.9542 52° Northeast 475 547 36,200 850 Climbing Memphis Center
Fri 04:09:57 PM 33.8511 -91.8353 53° Northeast 465 535 37,000 400 Climbing Memphis Center
Fri 04:10:57 PM 33.9275 -91.7142 53° Northeast 457 526 37,000  Level Memphis Center
Fri 04:11:57 PM 34.0039 -91.5975 52° Northeast 450 518 37,000  Level Memphis Center
Fri 04:12:57 PM 34.0842 -91.4733 52° Northeast 458 527 37,000  Level Memphis Center
Fri 04:13:57 PM 34.1647 -91.3489 52° Northeast 465 535 37,000  Level Memphis Center
Fri 04:14:57 PM 34.2450 -91.2214 53° Northeast 465 535 37,000  Level Memphis Center
Fri 04:15:57 PM 34.3208 -91.1017 52° Northeast 458 527 37,000  Level Memphis Center
Fri 04:16:57 PM 34.3986 -90.9789 52° Northeast 453 521 37,000  Level Memphis Center
Fri 04:17:57 PM 34.4658 -90.8686 54° Northeast 453 521 37,000  Level Memphis Center
Fri 04:18:57 PM 34.5436 -90.7453 53° Northeast 453 521 37,000  Level Memphis Center
Fri 04:19:57 PM 34.6189 -90.6247 53° Northeast 459 528 37,000  Level Memphis Center
Fri 04:20:57 PM 34.6944 -90.5011 53° Northeast 459 528 37,000  Level Memphis Center
Fri 04:21:57 PM 34.7717 -90.3747 53° Northeast 459 528 37,000  Level Memphis Center
Fri 04:22:57 PM 34.8486 -90.2533 52° Northeast 459 528 37,000  Level Memphis Center
Fri 04:23:57 PM 34.9361 -90.1164 52° Northeast 459 528 37,000  Level Memphis Center
Fri 04:24:57 PM 35.0172 -89.9894 52° Northeast 464 534 37,000  Level Memphis Center
Fri 04:25:57 PM 35.0731 -89.8444 65° Northeast 464 534 37,000  Level Memphis Center
Fri 04:26:57 PM 35.1244 -89.6944 67° East 475 547 37,000  Level Memphis Center
Fri 04:27:57 PM 35.1736 -89.5492 67° East 469 540 37,000  Level Memphis Center
Fri 04:28:57 PM 35.2186 -89.4192 67° East 469 540 37,000  Level Memphis Center
Fri 04:29:57 PM 35.2675 -89.2789 67° East 452 520 37,000  Level Memphis Center
Fri 04:30:57 PM 35.3183 -89.1331 67° East 460 529 37,000  Level Memphis Center
Fri 04:31:57 PM 35.3669 -88.9897 67° East 455 524 37,000  Level Memphis Center
Fri 04:32:57 PM 35.4175 -88.8464 67° East 460 529 37,000  Level Memphis Center
Fri 04:33:57 PM 35.4656 -88.6900 69° East 452 520 37,000  Level Memphis Center
Fri 04:34:57 PM 35.5175 -88.5408 67° East 458 527 37,000  Level Memphis Center
Fri 04:35:57 PM 35.5697 -88.3967 66° East 458 527 37,000  Level Memphis Center
Fri 04:36:57 PM 35.6192 -88.2475 68° East 458 527 37,000  Level Memphis Center
Fri 04:37:57 PM 35.6631 -88.1211 67° East 458 527 37,000  Level Memphis Center
Fri 04:38:57 PM 35.7144 -87.9689 67° East 463 533 37,000  Level Memphis Center
Fri 04:39:57 PM 35.7656 -87.8164 68° East 469 540 37,000  Level Memphis Center
Fri 04:40:57 PM 35.8164 -87.6639 68° East 477 549 37,000  Level Memphis Center
Fri 04:41:57 PM 35.8711 -87.4956 68° East 477 549 37,000  Level Memphis Center
Fri 04:42:57 PM 35.9217 -87.3425 68° East 482 555 37,000  Level Memphis Center
Fri 04:43:57 PM 35.9719 -87.1844 69° East 482 555 37,000  Level Memphis Center
Fri 04:44:57 PM 36.0242 -87.0283 67° East 482 555 37,000 -500 Level Memphis Center
Fri 04:45:57 PM 36.0719 -86.8697 70° East 482 555 36,000 -1,050 Descending Memphis Center
Fri 04:46:57 PM 36.1258 -86.7133 67° East 487 560 34,900 -900 Descending Memphis Center
Fri 04:47:57 PM 36.2033 -86.5811 54° Northeast 479 551 34,200 -1,300 Descending Memphis Center
Fri 04:48:57 PM 36.2869 -86.4614 49° Northeast 466 536 32,300 -1,950 Descending Memphis Center
Fri 04:49:57 PM 36.3731 -86.3439 48° Northeast 455 524 30,300 -2,000 Descending Memphis Center
Fri 04:50:57 PM 36.4547 -86.2289 49° Northeast 449 517 28,300 -1,922 Descending Memphis Center
Fri 04:52:30 PM 36.5839 -86.0456 49° Northeast 482 555 25,400 -1,665 Descending Indianapolis Center
Fri 04:53:32 PM 36.6722 -85.9186 49° Northeast 481 554 24,000 -677 Descending Indianapolis Center
Fri 04:54:34 PM 36.7528 -85.8014 49° Northeast 463 533 24,000  Level Indianapolis Center
Fri 04:55:36 PM 36.8444 -85.6650 50° Northeast 484 557 24,000 -968 Level Indianapolis Center
Fri 04:56:38 PM 36.9417 -85.5203 50° Northeast 463 533 22,000 -1,887 Descending Indianapolis Center
Fri 04:57:40 PM 37.0211 -85.4081 48° Northeast 440 506 20,100 -960 Descending Indianapolis Center
Fri 04:58:43 PM 37.1053 -85.2819 50° Northeast 436 502 20,000 -48 Descending Indianapolis Center
Fri 04:59:45 PM 37.1864 -85.1606 50° Northeast 450 518 20,000 -774 Level Indianapolis Center
Fri 05:00:47 PM 37.2661 -85.0439 49° Northeast 441 507 18,400 -1,694 Descending Indianapolis Center
Fri 05:01:49 PM 37.3389 -84.9336 50° Northeast 413 475 16,500 -2,177 Descending Indianapolis Center
Fri 05:02:51 PM 37.4097 -84.8278 50° Northeast 401 461 13,900 -2,081 Descending Indianapolis Center
Fri 05:03:53 PM 37.4847 -84.7297 46° Northeast 397 457 12,200 -1,597 Descending Indianapolis Center
Fri 05:04:55 PM 37.5856 -84.7042 11° North 321 369 10,600 -1,306 Descending Indianapolis Center
Fri 05:05:57 PM 37.6697 -84.6947 North 304 350 9,500 -1,403 Descending Indianapolis Center
Fri 05:06:59 PM 37.7469 -84.6878 North 285 328 7,700 -1,742 Descending Indianapolis Center
Fri 05:08:01 PM 37.8231 -84.6789 North 276 318 5,900 -1,742 Descending Indianapolis Center

Login

Don't have an account? Register now (free) for customized features, flight alerts, and more!